Arlington, Colorado
Current Conditions -  °F | °C
As of 1:53 PM on Friday 19 Dec 2014 (Local Time) from KLHX Reporting Station
Clear Clear  
Wind Chill:   Ceiling: Unl
Heat Index:   Visibility: 10mi
Dew Point: -2°   Wind: 0mph
Humidity: 51%   Direction: NA
Pressure: 30.04"   Gusts: NA
Location:  38.34°N, 103.34°W
Report Text: KLHX 192053Z AUTO 00000KT 10SM CLR 08/M02 A3004 RMK AO2 SLP170 T00781017 56025
Loading
Personal Weather Stations






























Interactive Weather Map New forecast layout! Learn more

10-Day Weather Forecast

Advertisements
Track Severe Weather on mobile